sensor_id;sensor_type;location;lat;lon;timestamp;pressure;altitude;pressure_sealevel;temperature;humidity
40708;BME280;26392;42.696;23.350;2022-11-20T00:00:39;94614.94;;;15.60;100.00
40708;BME280;26392;42.696;23.350;2022-11-20T00:03:04;94619.13;;;15.99;92.52
40708;BME280;26392;42.696;23.350;2022-11-20T00:05:32;94593.28;;;16.14;91.70
40708;BME280;26392;42.696;23.350;2022-11-20T00:07:58;94595.97;;;16.05;91.94
40708;BME280;26392;42.696;23.350;2022-11-20T00:10:23;94605.09;;;16.14;91.91
40708;BME280;26392;42.696;23.350;2022-11-20T00:12:48;94598.34;;;16.34;85.05
40708;BME280;26392;42.696;23.350;2022-11-20T00:15:14;94615.44;;;16.45;87.81
40708;BME280;26392;42.696;23.350;2022-11-20T00:17:39;94599.75;;;16.45;89.67
40708;BME280;26392;42.696;23.350;2022-11-20T00:20:05;94621.03;;;16.40;90.79
40708;BME280;26392;42.696;23.350;2022-11-20T00:22:30;94622.09;;;16.30;91.65
40708;BME280;26392;42.696;23.350;2022-11-20T00:24:56;94619.72;;;16.23;91.72
40708;BME280;26392;42.696;23.350;2022-11-20T00:27:23;94590.31;;;16.24;91.15
40708;BME280;26392;42.696;23.350;2022-11-20T00:29:48;94592.44;;;16.27;90.59
40708;BME280;26392;42.696;23.350;2022-11-20T00:32:14;94607.03;;;16.27;89.82
40708;BME280;26392;42.696;23.350;2022-11-20T00:34:39;94607.13;;;16.22;90.67
40708;BME280;26392;42.696;23.350;2022-11-20T00:37:04;94620.16;;;16.17;91.84
40708;BME280;26392;42.696;23.350;2022-11-20T00:39:30;94586.88;;;15.91;92.01
40708;BME280;26392;42.696;23.350;2022-11-20T00:41:55;94576.13;;;15.94;92.42
40708;BME280;26392;42.696;23.350;2022-11-20T00:44:20;94566.13;;;15.98;92.38
40708;BME280;26392;42.696;23.350;2022-11-20T00:46:46;94572.94;;;16.01;86.13
40708;BME280;26392;42.696;23.350;2022-11-20T00:49:11;94615.66;;;16.21;87.97
40708;BME280;26392;42.696;23.350;2022-11-20T00:51:37;94603.84;;;16.34;85.54
40708;BME280;26392;42.696;23.350;2022-11-20T00:54:02;94582.53;;;16.76;77.22
40708;BME280;26392;42.696;23.350;2022-11-20T00:56:28;94604.28;;;17.00;75.34
40708;BME280;26392;42.696;23.350;2022-11-20T00:58:53;94591.47;;;17.27;72.36
40708;BME280;26392;42.696;23.350;2022-11-20T01:01:21;94588.81;;;17.44;71.85
40708;BME280;26392;42.696;23.350;2022-11-20T01:03:50;94598.44;;;17.55;73.20
40708;BME280;26392;42.696;23.350;2022-11-20T01:06:18;94584.50;;;17.52;73.96
40708;BME280;26392;42.696;23.350;2022-11-20T01:08:45;94568.47;;;17.54;72.98
40708;BME280;26392;42.696;23.350;2022-11-20T01:11:15;94602.66;;;17.61;69.81
40708;BME280;26392;42.696;23.350;2022-11-20T01:13:42;94571.94;;;17.68;70.27
40708;BME280;26392;42.696;23.350;2022-11-20T01:18:35;94574.84;;;17.72;71.61
40708;BME280;26392;42.696;23.350;2022-11-20T01:21:09;94581.00;;;17.68;71.41
40708;BME280;26392;42.696;23.350;2022-11-20T01:23:36;94591.72;;;17.70;69.75
40708;BME280;26392;42.696;23.350;2022-11-20T01:26:04;94550.28;;;17.84;68.19
40708;BME280;26392;42.696;23.350;2022-11-20T01:28:30;94564.56;;;17.86;66.63
40708;BME280;26392;42.696;23.350;2022-11-20T01:30:56;94570.44;;;17.93;65.98
40708;BME280;26392;42.696;23.350;2022-11-20T01:33:21;94559.44;;;18.10;64.96
40708;BME280;26392;42.696;23.350;2022-11-20T01:35:47;94558.50;;;18.24;64.53
40708;BME280;26392;42.696;23.350;2022-11-20T01:38:12;94516.16;;;18.37;62.40
40708;BME280;26392;42.696;23.350;2022-11-20T01:40:38;94534.50;;;18.68;59.97
40708;BME280;26392;42.696;23.350;2022-11-20T01:43:14;94540.19;;;18.71;60.73
40708;BME280;26392;42.696;23.350;2022-11-20T01:46:01;94490.06;;;18.78;59.48
40708;BME280;26392;42.696;23.350;2022-11-20T01:48:40;94532.56;;;18.94;59.60
40708;BME280;26392;42.696;23.350;2022-11-20T01:51:17;94534.84;;;18.84;62.96
40708;BME280;26392;42.696;23.350;2022-11-20T01:53:44;94546.72;;;18.75;61.65
40708;BME280;26392;42.696;23.350;2022-11-20T01:56:11;94542.47;;;18.69;62.70
40708;BME280;26392;42.696;23.350;2022-11-20T01:58:42;94532.75;;;18.54;62.02
40708;BME280;26392;42.696;23.350;2022-11-20T02:01:10;94530.13;;;18.49;62.06
40708;BME280;26392;42.696;23.350;2022-11-20T02:03:36;94556.41;;;18.64;61.24
40708;BME280;26392;42.696;23.350;2022-11-20T02:06:10;94549.28;;;18.63;61.70
40708;BME280;26392;42.696;23.350;2022-11-20T02:08:37;94547.00;;;18.56;61.50
40708;BME280;26392;42.696;23.350;2022-11-20T02:11:03;94539.88;;;18.64;60.33
40708;BME280;26392;42.696;23.350;2022-11-20T02:13:28;94523.16;;;18.69;60.66
40708;BME280;26392;42.696;23.350;2022-11-20T02:16:36;94553.66;;;18.73;59.21
40708;BME280;26392;42.696;23.350;2022-11-20T02:19:06;94543.78;;;18.81;59.85
40708;BME280;26392;42.696;23.350;2022-11-20T02:21:40;94534.03;;;19.00;58.12
40708;BME280;26392;42.696;23.350;2022-11-20T02:24:15;94548.31;;;18.94;59.40
40708;BME280;26392;42.696;23.350;2022-11-20T02:26:53;94559.03;;;18.87;59.82
40708;BME280;26392;42.696;23.350;2022-11-20T02:29:24;94551.75;;;18.82;60.44
40708;BME280;26392;42.696;23.350;2022-11-20T02:31:51;94547.84;;;18.92;59.28
40708;BME280;26392;42.696;23.350;2022-11-20T02:34:17;94553.22;;;18.80;60.26
40708;BME280;26392;42.696;23.350;2022-11-20T02:36:43;94542.00;;;18.85;59.47
40708;BME280;26392;42.696;23.350;2022-11-20T02:39:11;94559.69;;;18.84;59.35
40708;BME280;26392;42.696;23.350;2022-11-20T02:41:37;94567.31;;;18.87;59.33
40708;BME280;26392;42.696;23.350;2022-11-20T02:44:04;94558.09;;;18.83;59.78
40708;BME280;26392;42.696;23.350;2022-11-20T02:46:31;94556.13;;;18.83;59.27
40708;BME280;26392;42.696;23.350;2022-11-20T02:48:58;94567.81;;;18.89;58.94
40708;BME280;26392;42.696;23.350;2022-11-20T02:51:23;94565.69;;;18.94;58.61
40708;BME280;26392;42.696;23.350;2022-11-20T02:53:49;94569.13;;;18.91;59.50
40708;BME280;26392;42.696;23.350;2022-11-20T02:56:15;94564.41;;;18.83;60.15
40708;BME280;26392;42.696;23.350;2022-11-20T02:58:40;94579.97;;;18.79;60.98
40708;BME280;26392;42.696;23.350;2022-11-20T03:01:06;94586.31;;;18.80;61.42
40708;BME280;26392;42.696;23.350;2022-11-20T03:03:31;94578.66;;;18.68;62.09
40708;BME280;26392;42.696;23.350;2022-11-20T03:05:59;94597.66;;;18.69;63.14
40708;BME280;26392;42.696;23.350;2022-11-20T03:08:24;94607.41;;;18.75;62.60
40708;BME280;26392;42.696;23.350;2022-11-20T03:10:50;94606.59;;;18.84;61.14
40708;BME280;26392;42.696;23.350;2022-11-20T03:13:15;94598.31;;;18.84;61.62
40708;BME280;26392;42.696;23.350;2022-11-20T03:15:40;94607.09;;;18.94;61.40
40708;BME280;26392;42.696;23.350;2022-11-20T03:18:06;94613.44;;;18.86;62.46
40708;BME280;26392;42.696;23.350;2022-11-20T03:20:33;94610.16;;;18.84;61.96
40708;BME280;26392;42.696;23.350;2022-11-20T03:22:59;94603.84;;;18.92;61.61
40708;BME280;26392;42.696;23.350;2022-11-20T03:25:24;94617.50;;;18.89;62.24
40708;BME280;26392;42.696;23.350;2022-11-20T03:27:50;94626.72;;;18.84;62.99
40708;BME280;26392;42.696;23.350;2022-11-20T03:30:15;94617.78;;;18.87;62.16
40708;BME280;26392;42.696;23.350;2022-11-20T03:32:41;94617.16;;;18.82;61.78
40708;BME280;26392;42.696;23.350;2022-11-20T03:35:06;94619.75;;;18.87;61.53
40708;BME280;26392;42.696;23.350;2022-11-20T03:37:32;94622.50;;;18.87;61.53
40708;BME280;26392;42.696;23.350;2022-11-20T03:39:57;94613.44;;;18.86;62.24
40708;BME280;26392;42.696;23.350;2022-11-20T03:42:23;94630.47;;;18.88;62.19
40708;BME280;26392;42.696;23.350;2022-11-20T03:45:07;94617.50;;;18.89;61.62
40708;BME280;26392;42.696;23.350;2022-11-20T03:47:32;94626.91;;;18.88;62.41
40708;BME280;26392;42.696;23.350;2022-11-20T03:49:58;94633.06;;;18.76;63.20
40708;BME280;26392;42.696;23.350;2022-11-20T03:52:23;94617.78;;;18.78;62.95
40708;BME280;26392;42.696;23.350;2022-11-20T03:54:48;94623.66;;;18.77;62.55
40708;BME280;26392;42.696;23.350;2022-11-20T03:57:14;94603.69;;;18.80;61.81
40708;BME280;26392;42.696;23.350;2022-11-20T03:59:39;94616.19;;;18.77;63.15
40708;BME280;26392;42.696;23.350;2022-11-20T04:02:05;94613.94;;;18.80;62.12
40708;BME280;26392;42.696;23.350;2022-11-20T04:04:30;94616.84;;;18.74;63.51
40708;BME280;26392;42.696;23.350;2022-11-20T04:06:55;94615.81;;;18.70;63.51
40708;BME280;26392;42.696;23.350;2022-11-20T04:09:21;94613.69;;;18.67;64.16
40708;BME280;26392;42.696;23.350;2022-11-20T04:11:46;94623.66;;;18.77;62.21
40708;BME280;26392;42.696;23.350;2022-11-20T04:14:13;94626.38;;;18.68;63.27
40708;BME280;26392;42.696;23.350;2022-11-20T04:16:39;94630.75;;;18.69;63.61
40708;BME280;26392;42.696;23.350;2022-11-20T04:19:06;94625.22;;;18.61;63.58
40708;BME280;26392;42.696;23.350;2022-11-20T04:21:32;94631.19;;;18.45;64.44
40708;BME280;26392;42.696;23.350;2022-11-20T04:23:57;94626.84;;;18.53;64.42
40708;BME280;26392;42.696;23.350;2022-11-20T04:26:25;94616.94;;;18.61;64.00
40708;BME280;26392;42.696;23.350;2022-11-20T04:28:50;94624.06;;;18.53;64.33
40708;BME280;26392;42.696;23.350;2022-11-20T04:31:27;94617.25;;;18.50;63.87
40708;BME280;26392;42.696;23.350;2022-11-20T04:33:53;94611.72;;;18.50;63.33
40708;BME280;26392;42.696;23.350;2022-11-20T04:36:24;94630.72;;;18.52;63.46
40708;BME280;26392;42.696;23.350;2022-11-20T04:38:54;94641.41;;;18.45;65.16
40708;BME280;26392;42.696;23.350;2022-11-20T04:41:21;94642.22;;;18.45;63.78
40708;BME280;26392;42.696;23.350;2022-11-20T04:43:51;94643.06;;;18.46;63.36
40708;BME280;26392;42.696;23.350;2022-11-20T04:46:18;94636.72;;;18.45;63.67
40708;BME280;26392;42.696;23.350;2022-11-20T04:48:45;94621.16;;;18.49;63.90
40708;BME280;26392;42.696;23.350;2022-11-20T04:51:10;94627.78;;;18.48;64.28
40708;BME280;26392;42.696;23.350;2022-11-20T04:53:35;94627.78;;;18.48;64.09
40708;BME280;26392;42.696;23.350;2022-11-20T04:56:03;94619.69;;;18.52;64.24
40708;BME280;26392;42.696;23.350;2022-11-20T04:58:29;94617.91;;;18.47;64.71
40708;BME280;26392;42.696;23.350;2022-11-20T05:01:04;94615.28;;;18.42;65.04
40708;BME280;26392;42.696;23.350;2022-11-20T05:03:29;94608.94;;;18.33;65.81
40708;BME280;26392;42.696;23.350;2022-11-20T05:05:55;94593.38;;;18.37;65.60
40708;BME280;26392;42.696;23.350;2022-11-20T05:08:20;94584.94;;;18.42;64.47
40708;BME280;26392;42.696;23.350;2022-11-20T05:10:46;94584.63;;;18.35;65.00
40708;BME280;26392;42.696;23.350;2022-11-20T05:13:11;94602.78;;;18.36;65.09
40708;BME280;26392;42.696;23.350;2022-11-20T05:15:37;94600.84;;;18.37;65.01
40708;BME280;26392;42.696;23.350;2022-11-20T05:18:02;94589.97;;;18.31;65.36
40708;BME280;26392;42.696;23.350;2022-11-20T05:20:27;94589.16;;;18.31;65.01
40708;BME280;26392;42.696;23.350;2022-11-20T05:22:56;94594.66;;;18.22;66.11
40708;BME280;26392;42.696;23.350;2022-11-20T05:25:22;94584.28;;;18.28;65.45
40708;BME280;26392;42.696;23.350;2022-11-20T05:27:47;94592.06;;;18.26;66.21
40708;BME280;26392;42.696;23.350;2022-11-20T05:30:13;94585.56;;;18.22;66.54
40708;BME280;26392;42.696;23.350;2022-11-20T05:32:38;94573.25;;;18.19;67.40
40708;BME280;26392;42.696;23.350;2022-11-20T05:35:04;94591.22;;;18.17;68.93
40708;BME280;26392;42.696;23.350;2022-11-20T05:37:29;94594.78;;;18.08;70.14
40708;BME280;26392;42.696;23.350;2022-11-20T05:39:54;94600.94;;;18.05;72.26
40708;BME280;26392;42.696;23.350;2022-11-20T05:42:20;94608.69;;;17.95;73.57
40708;BME280;26392;42.696;23.350;2022-11-20T05:44:58;94607.53;;;17.87;75.55
40708;BME280;26392;42.696;23.350;2022-11-20T05:47:24;94589.13;;;17.74;76.49
40708;BME280;26392;42.696;23.350;2022-11-20T05:49:50;94602.41;;;17.72;77.88
40708;BME280;26392;42.696;23.350;2022-11-20T05:52:15;94614.22;;;17.72;78.26
40708;BME280;26392;42.696;23.350;2022-11-20T05:54:40;94618.94;;;17.72;78.02
40708;BME280;26392;42.696;23.350;2022-11-20T05:57:06;94607.38;;;17.61;78.59
40708;BME280;26392;42.696;23.350;2022-11-20T05:59:31;94605.41;;;17.61;77.86
40708;BME280;26392;42.696;23.350;2022-11-20T06:01:56;94603.31;;;17.58;77.89
40708;BME280;26392;42.696;23.350;2022-11-20T06:04:22;94604.44;;;17.57;77.89
40708;BME280;26392;42.696;23.350;2022-11-20T06:06:47;94612.19;;;17.55;77.87
40708;BME280;26392;42.696;23.350;2022-11-20T06:09:12;94611.94;;;17.65;76.47
40708;BME280;26392;42.696;23.350;2022-11-20T06:11:38;94608.25;;;17.70;75.71
40708;BME280;26392;42.696;23.350;2022-11-20T06:14:03;94603.22;;;17.72;75.16
40708;BME280;26392;42.696;23.350;2022-11-20T06:16:29;94598.03;;;17.71;75.18
40708;BME280;26392;42.696;23.350;2022-11-20T06:18:54;94593.41;;;17.80;74.58
40708;BME280;26392;42.696;23.350;2022-11-20T06:21:21;94598.09;;;17.79;74.43
40708;BME280;26392;42.696;23.350;2022-11-20T06:23:48;94598.59;;;17.81;74.69
40708;BME280;26392;42.696;23.350;2022-11-20T06:26:27;94602.16;;;17.82;74.42
40708;BME280;26392;42.696;23.350;2022-11-20T06:28:54;94596.50;;;17.87;73.74
40708;BME280;26392;42.696;23.350;2022-11-20T06:31:22;94600.88;;;17.88;73.25
40708;BME280;26392;42.696;23.350;2022-11-20T06:33:49;94605.75;;;17.91;73.03
40708;BME280;26392;42.696;23.350;2022-11-20T06:36:16;94617.28;;;17.93;73.31
40708;BME280;26392;42.696;23.350;2022-11-20T06:38:43;94608.38;;;17.96;73.06
40708;BME280;26392;42.696;23.350;2022-11-20T06:41:14;94608.53;;;18.00;73.08
40708;BME280;26392;42.696;23.350;2022-11-20T06:43:40;94596.34;;;17.92;73.93
40708;BME280;26392;42.696;23.350;2022-11-20T06:46:06;94603.97;;;17.95;73.29
40708;BME280;26392;42.696;23.350;2022-11-20T06:48:32;94608.69;;;18.03;72.58
40708;BME280;26392;42.696;23.350;2022-11-20T06:50:58;94614.06;;;18.08;71.76
40708;BME280;26392;42.696;23.350;2022-11-20T06:53:23;94608.25;;;18.10;72.10
40708;BME280;26392;42.696;23.350;2022-11-20T06:55:50;94609.88;;;18.11;71.49
40708;BME280;26392;42.696;23.350;2022-11-20T06:58:16;94614.56;;;18.10;71.11
40708;BME280;26392;42.696;23.350;2022-11-20T07:00:42;94622.19;;;18.14;70.98
40708;BME280;26392;42.696;23.350;2022-11-20T07:03:09;94616.38;;;18.15;71.00
40708;BME280;26392;42.696;23.350;2022-11-20T07:05:35;94624.97;;;18.14;71.33
40708;BME280;26392;42.696;23.350;2022-11-20T07:08:02;94616.38;;;18.15;70.97
40708;BME280;26392;42.696;23.350;2022-11-20T07:10:28;94624.31;;;18.17;71.14
40708;BME280;26392;42.696;23.350;2022-11-20T07:12:54;94634.22;;;18.18;70.81
40708;BME280;26392;42.696;23.350;2022-11-20T07:15:21;94636.97;;;18.18;70.89
40708;BME280;26392;42.696;23.350;2022-11-20T07:17:46;94646.19;;;18.13;71.23
40708;BME280;26392;42.696;23.350;2022-11-20T07:20:12;94638.44;;;18.15;69.34
40708;BME280;26392;42.696;23.350;2022-11-20T07:22:38;94634.53;;;18.16;68.59
40708;BME280;26392;42.696;23.350;2022-11-20T07:25:04;94638.75;;;18.14;68.35
40708;BME280;26392;42.696;23.350;2022-11-20T07:27:30;94642.50;;;18.18;68.00
40708;BME280;26392;42.696;23.350;2022-11-20T07:29:55;94646.38;;;18.17;68.21
40708;BME280;26392;42.696;23.350;2022-11-20T07:32:21;94639.53;;;18.14;68.38
40708;BME280;26392;42.696;23.350;2022-11-20T07:34:46;94644.75;;;18.16;67.89
40708;BME280;26392;42.696;23.350;2022-11-20T07:37:12;94649.47;;;18.15;68.84
40708;BME280;26392;42.696;23.350;2022-11-20T07:39:37;94646.50;;;18.11;69.63
40708;BME280;26392;42.696;23.350;2022-11-20T07:42:03;94651.69;;;18.04;68.59
40708;BME280;26392;42.696;23.350;2022-11-20T07:44:28;94653.66;;;18.13;68.58
40708;BME280;26392;42.696;23.350;2022-11-20T07:46:53;94653.31;;;18.14;68.59
40708;BME280;26392;42.696;23.350;2022-11-20T07:49:19;94653.81;;;18.07;67.99
40708;BME280;26392;42.696;23.350;2022-11-20T07:51:44;94649.59;;;18.10;67.90
40708;BME280;26392;42.696;23.350;2022-11-20T07:54:09;94638.84;;;18.00;67.76
40708;BME280;26392;42.696;23.350;2022-11-20T07:56:35;94648.13;;;18.04;68.15
40708;BME280;26392;42.696;23.350;2022-11-20T07:59:00;94645.03;;;18.05;68.46
40708;BME280;26392;42.696;23.350;2022-11-20T08:01:26;94650.53;;;18.05;69.02
40708;BME280;26392;42.696;23.350;2022-11-20T08:03:51;94642.28;;;18.05;68.99
40708;BME280;26392;42.696;23.350;2022-11-20T08:06:16;94642.78;;;18.07;69.66
40708;BME280;26392;42.696;23.350;2022-11-20T08:08:43;94645.03;;;18.05;69.50
40708;BME280;26392;42.696;23.350;2022-11-20T08:11:09;94641.16;;;18.06;70.23
40708;BME280;26392;42.696;23.350;2022-11-20T08:13:53;94632.25;;;18.09;69.92
40708;BME280;26392;42.696;23.350;2022-11-20T08:16:37;94624.44;;;18.11;69.10
40708;BME280;26392;42.696;23.350;2022-11-20T08:19:03;94639.06;;;18.12;69.33
40708;BME280;26392;42.696;23.350;2022-11-20T08:21:30;94631.91;;;18.11;69.06
40708;BME280;26392;42.696;23.350;2022-11-20T08:23:55;94618.00;;;18.16;68.02
40708;BME280;26392;42.696;23.350;2022-11-20T08:26:21;94619.94;;;18.16;68.35
40708;BME280;26392;42.696;23.350;2022-11-20T08:28:47;94626.44;;;18.20;67.00
40708;BME280;26392;42.696;23.350;2022-11-20T08:31:13;94643.47;;;18.22;66.82
40708;BME280;26392;42.696;23.350;2022-11-20T08:33:38;94642.97;;;18.20;67.29
40708;BME280;26392;42.696;23.350;2022-11-20T08:36:04;94661.47;;;18.19;67.04
40708;BME280;26392;42.696;23.350;2022-11-20T08:38:30;94670.88;;;18.18;67.24
40708;BME280;26392;42.696;23.350;2022-11-20T08:41:00;94664.56;;;18.18;69.92
40708;BME280;26392;42.696;23.350;2022-11-20T08:43:44;94651.72;;;18.13;70.45
40708;BME280;26392;42.696;23.350;2022-11-20T08:46:10;94651.38;;;18.15;70.78
40708;BME280;26392;42.696;23.350;2022-11-20T08:48:35;94667.47;;;18.21;70.25
40708;BME280;26392;42.696;23.350;2022-11-20T08:51:01;94683.84;;;18.18;70.55
40708;BME280;26392;42.696;23.350;2022-11-20T08:53:27;94688.84;;;18.16;69.58
40708;BME280;26392;42.696;23.350;2022-11-20T08:55:52;94697.13;;;18.16;72.79
40708;BME280;26392;42.696;23.350;2022-11-20T08:58:18;94697.25;;;18.10;75.90
40708;BME280;26392;42.696;23.350;2022-11-20T09:00:43;94700.97;;;18.06;77.60
40708;BME280;26392;42.696;23.350;2022-11-20T09:03:09;94687.53;;;18.04;78.20
40708;BME280;26392;42.696;23.350;2022-11-20T09:05:34;94684.94;;;18.08;78.63
40708;BME280;26392;42.696;23.350;2022-11-20T09:07:59;94696.28;;;18.06;78.04
40708;BME280;26392;42.696;23.350;2022-11-20T09:10:28;94696.97;;;18.12;78.64
40708;BME280;26392;42.696;23.350;2022-11-20T09:12:54;94698.25;;;18.15;79.50
40708;BME280;26392;42.696;23.350;2022-11-20T09:15:20;94696.78;;;18.17;80.29
40708;BME280;26392;42.696;23.350;2022-11-20T09:18:00;94704.28;;;18.25;80.67
40708;BME280;26392;42.696;23.350;2022-11-20T09:20:27;94706.91;;;18.30;81.68
40708;BME280;26392;42.696;23.350;2022-11-20T09:22:53;94705.09;;;18.26;83.30
40708;BME280;26392;42.696;23.350;2022-11-20T09:25:19;94709.94;;;18.20;86.06
40708;BME280;26392;42.696;23.350;2022-11-20T09:27:44;94709.44;;;18.09;85.90
40708;BME280;26392;42.696;23.350;2022-11-20T09:30:12;94701.34;;;17.82;80.18
40708;BME280;26392;42.696;23.350;2022-11-20T09:32:38;94701.53;;;17.63;83.07
40708;BME280;26392;42.696;23.350;2022-11-20T09:35:04;94703.66;;;17.43;88.50
40708;BME280;26392;42.696;23.350;2022-11-20T09:37:29;94695.00;;;17.36;89.10
40708;BME280;26392;42.696;23.350;2022-11-20T09:39:55;94690.59;;;17.27;89.08
40708;BME280;26392;42.696;23.350;2022-11-20T09:47:40;94667.81;;;17.35;89.73
40708;BME280;26392;42.696;23.350;2022-11-20T09:55:16;94663.63;;;17.15;90.61
40708;BME280;26392;42.696;23.350;2022-11-20T09:57:44;94651.41;;;17.07;93.36
40708;BME280;26392;42.696;23.350;2022-11-20T10:00:12;94661.84;;;16.96;98.54
40708;BME280;26392;42.696;23.350;2022-11-20T10:02:48;94654.25;;;16.66;100.00
40708;BME280;26392;42.696;23.350;2022-11-20T10:05:42;94649.22;;;16.45;100.00
40708;BME280;26392;42.696;23.350;2022-11-20T10:08:25;94641.41;;;16.39;100.00
40708;BME280;26392;42.696;23.350;2022-11-20T10:30:18;94627.47;;;16.07;100.00
40708;BME280;26392;42.696;23.350;2022-11-20T10:32:58;94628.19;;;16.13;100.00
40708;BME280;26392;42.696;23.350;2022-11-20T10:38:02;94638.34;;;16.26;100.00
40708;BME280;26392;42.696;23.350;2022-11-20T10:40:36;94635.91;;;16.39;100.00
40708;BME280;26392;42.696;23.350;2022-11-20T10:43:12;94641.88;;;16.41;100.00
40708;BME280;26392;42.696;23.350;2022-11-20T10:46:18;94637.72;;;16.43;100.00
40708;BME280;26392;42.696;23.350;2022-11-20T10:48:45;94640.16;;;16.45;100.00
40708;BME280;26392;42.696;23.350;2022-11-20T10:53:56;94633.31;;;16.56;100.00
40708;BME280;26392;42.696;23.350;2022-11-20T10:56:46;94628.44;;;16.53;100.00
40708;BME280;26392;42.696;23.350;2022-11-20T11:02:15;94652.94;;;16.63;100.00
40708;BME280;26392;42.696;23.350;2022-11-20T11:04:48;94641.09;;;16.40;100.00
40708;BME280;26392;42.696;23.350;2022-11-20T11:09:55;94699.84;;;16.30;100.00
40708;BME280;26392;42.696;23.350;2022-11-20T11:12:27;94695.97;;;16.04;100.00
40708;BME280;26392;42.696;23.350;2022-11-20T11:14:55;94707.09;;;15.66;100.00
40708;BME280;26392;42.696;23.350;2022-11-20T11:17:30;94703.00;;;15.31;100.00
40708;BME280;26392;42.696;23.350;2022-11-20T11:20:01;94719.44;;;15.17;100.00
40708;BME280;26392;42.696;23.350;2022-11-20T11:22:29;94699.28;;;15.08;100.00
40708;BME280;26392;42.696;23.350;2022-11-20T11:24:56;94701.06;;;14.98;100.00
40708;BME280;26392;42.696;23.350;2022-11-20T11:27:22;94691.25;;;14.92;100.00
40708;BME280;26392;42.696;23.350;2022-11-20T11:29:47;94681.56;;;14.81;100.00
40708;BME280;26392;42.696;23.350;2022-11-20T11:32:19;94668.03;;;14.71;100.00
40708;BME280;26392;42.696;23.350;2022-11-20T11:34:58;94695.56;;;14.61;100.00
40708;BME280;26392;42.696;23.350;2022-11-20T11:37:36;94676.44;;;14.55;100.00
40708;BME280;26392;42.696;23.350;2022-11-20T11:40:08;94683.09;;;14.49;100.00
40708;BME280;26392;42.696;23.350;2022-11-20T11:42:42;94686.06;;;14.53;100.00
40708;BME280;26392;42.696;23.350;2022-11-20T11:45:14;94668.03;;;14.47;100.00
40708;BME280;26392;42.696;23.350;2022-11-20T11:55:19;94691.66;;;14.24;100.00
40708;BME280;26392;42.696;23.350;2022-11-20T11:57:55;94691.34;;;14.25;100.00
40708;BME280;26392;42.696;23.350;2022-11-20T12:00:25;94688.84;;;14.29;100.00
40708;BME280;26392;42.696;23.350;2022-11-20T12:05:40;94665.06;;;14.24;100.00
40708;BME280;26392;42.696;23.350;2022-11-20T12:11:06;94674.63;;;14.27;100.00
40708;BME280;26392;42.696;23.350;2022-11-20T12:16:14;94667.38;;;14.36;100.00
40708;BME280;26392;42.696;23.350;2022-11-20T12:18:41;94659.69;;;14.38;100.00
40708;BME280;26392;42.696;23.350;2022-11-20T12:34:37;94698.16;;;14.28;100.00
40708;BME280;26392;42.696;23.350;2022-11-20T12:37:23;94689.34;;;14.31;100.00
40708;BME280;26392;42.696;23.350;2022-11-20T12:39:58;94658.56;;;14.20;100.00
40708;BME280;26392;42.696;23.350;2022-11-20T12:46:18;94609.31;;;14.15;100.00
40708;BME280;26392;42.696;23.350;2022-11-20T12:49:05;94607.59;;;14.00;100.00
40708;BME280;26392;42.696;23.350;2022-11-20T12:57:29;94644.34;;;13.46;100.00
40708;BME280;26392;42.696;23.350;2022-11-20T13:02:52;94650.75;;;13.36;100.00
40708;BME280;26392;42.696;23.350;2022-11-20T13:05:31;94649.41;;;13.34;100.00
40708;BME280;26392;42.696;23.350;2022-11-20T13:08:01;94649.41;;;13.34;100.00
40708;BME280;26392;42.696;23.350;2022-11-20T13:10:32;94638.84;;;13.17;100.00
40708;BME280;26392;42.696;23.350;2022-11-20T13:13:22;94622.53;;;13.07;100.00
40708;BME280;26392;42.696;23.350;2022-11-20T13:18:41;94580.59;;;12.87;100.00
40708;BME280;26392;42.696;23.350;2022-11-20T13:21:39;94622.72;;;12.86;100.00
40708;BME280;26392;42.696;23.350;2022-11-20T13:24:21;94627.56;;;12.94;100.00
40708;BME280;26392;42.696;23.350;2022-11-20T13:29:43;94608.13;;;12.96;100.00
40708;BME280;26392;42.696;23.350;2022-11-20T13:32:17;94624.53;;;12.96;100.00
40708;BME280;26392;42.696;23.350;2022-11-20T13:34:57;94652.38;;;13.03;100.00
40708;BME280;26392;42.696;23.350;2022-11-20T13:42:37;94659.94;;;13.46;100.00
40708;BME280;26392;42.696;23.350;2022-11-20T13:45:11;94661.47;;;13.57;100.00
40708;BME280;26392;42.696;23.350;2022-11-20T13:47:50;94629.63;;;13.66;100.00
40708;BME280;26392;42.696;23.350;2022-11-20T13:50:17;94624.00;;;13.52;100.00
40708;BME280;26392;42.696;23.350;2022-11-20T13:58:06;94613.31;;;13.56;100.00
40708;BME280;26392;42.696;23.350;2022-11-20T14:00:46;94639.53;;;13.62;100.00
40708;BME280;26392;42.696;23.350;2022-11-20T14:03:24;94667.84;;;13.76;100.00
40708;BME280;26392;42.696;23.350;2022-11-20T14:06:00;94659.84;;;13.80;100.00
40708;BME280;26392;42.696;23.350;2022-11-20T14:08:41;94657.53;;;13.92;100.00
40708;BME280;26392;42.696;23.350;2022-11-20T14:11:33;94657.16;;;13.99;100.00
40708;BME280;26392;42.696;23.350;2022-11-20T14:14:15;94642.13;;;13.96;100.00
40708;BME280;26392;42.696;23.350;2022-11-20T14:16:41;94640.03;;;13.88;100.00
40708;BME280;26392;42.696;23.350;2022-11-20T14:21:51;94636.94;;;13.95;100.00
40708;BME280;26392;42.696;23.350;2022-11-20T14:24:22;94652.72;;;14.03;100.00
40708;BME280;26392;42.696;23.350;2022-11-20T14:26:49;94634.38;;;14.03;100.00
40708;BME280;26392;42.696;23.350;2022-11-20T14:29:21;94632.78;;;13.97;100.00
40708;BME280;26392;42.696;23.350;2022-11-20T14:31:51;94638.53;;;14.01;100.00
40708;BME280;26392;42.696;23.350;2022-11-20T14:34:23;94636.47;;;14.12;100.00
40708;BME280;26392;42.696;23.350;2022-11-20T14:36:53;94660.53;;;14.15;100.00
40708;BME280;26392;42.696;23.350;2022-11-20T14:39:21;94659.41;;;14.16;100.00